Time;durP1;ratioP1;P1;durP2;ratioP2;P2;SDS_P1;SDS_P2;PMS_P1;PMS_P2;Temp;Humidity;BMP_temperature;BMP_pressure;BME280_temperature;BME280_humidity;BME280_pressure;Samples;Min_cycle;Max_cycle;Signal;HPM_P1;HPM_P2
2022/07/07 00:01:02;;;;;;;3.25;0.65;;;21.70;99.90;;;;;;1894386;75;21232;-75
2022/07/07 00:03:55;;;;;;;2.60;0.70;;;21.60;99.90;;;;;;1893488;75;21056;-75
2022/07/07 00:06:47;;;;;;;0.93;0.60;;;21.60;99.90;;;;;;1900887;75;21152;-74
2022/07/07 00:09:39;;;;;;;1.47;0.75;;;21.60;99.90;;;;;;1895237;74;21155;-75
2022/07/07 00:12:30;;;;;;;1.82;0.70;;;21.50;99.90;;;;;;1894969;75;21163;-75
2022/07/07 00:15:22;;;;;;;1.82;0.70;;;21.50;99.90;;;;;;1916280;75;21066;-75
2022/07/07 00:18:14;;;;;;;1.77;0.80;;;21.50;99.90;;;;;;1901580;75;21088;-73
2022/07/07 00:21:07;;;;;;;1.62;0.60;;;21.30;99.90;;;;;;1896803;75;21047;-74
2022/07/07 00:23:58;;;;;;;1.67;0.62;;;21.30;99.90;;;;;;1894929;75;21225;-73
2022/07/07 00:26:50;;;;;;;3.08;0.85;;;21.30;99.90;;;;;;1914676;75;21113;-73
2022/07/07 00:29:43;;;;;;;1.57;0.62;;;21.30;99.90;;;;;;1903230;75;21159;-73
2022/07/07 00:32:35;;;;;;;1.30;0.80;;;21.20;99.90;;;;;;1898667;75;21102;-73
2022/07/07 00:35:26;;;;;;;0.72;0.60;;;21.20;99.90;;;;;;1895120;75;21570;-73
2022/07/07 00:38:18;;;;;;;1.27;0.70;;;21.30;99.90;;;;;;1895193;75;21055;-73
2022/07/07 00:41:11;;;;;;;1.47;0.65;;;21.30;99.90;;;;;;1895874;75;21098;-73
2022/07/07 00:44:02;;;;;;;1.90;0.68;;;21.30;99.90;;;;;;1900360;75;21048;-73
2022/07/07 00:46:55;;;;;;;1.15;0.68;;;21.20;99.90;;;;;;1894874;75;21125;-73
2022/07/07 00:49:46;;;;;;;2.60;0.80;;;21.20;99.90;;;;;;1895003;75;21124;-73
2022/07/07 00:52:38;;;;;;;1.98;0.70;;;21.20;99.90;;;;;;1895156;75;21058;-73
2022/07/07 00:55:29;;;;;;;2.27;0.80;;;21.10;99.90;;;;;;1899733;75;21179;-73
2022/07/07 00:58:20;;;;;;;2.00;0.50;;;21.20;99.90;;;;;;1895713;75;21180;-73
2022/07/07 01:01:12;;;;;;;2.17;0.70;;;21.20;99.90;;;;;;1888266;75;21174;-73
2022/07/07 01:04:04;;;;;;;0.90;0.68;;;21.10;99.90;;;;;;1873687;75;21188;-73
2022/07/07 01:06:56;;;;;;;2.45;0.80;;;21.00;99.90;;;;;;1886239;75;21563;-73
2022/07/07 01:09:48;;;;;;;1.65;0.70;;;21.00;99.90;;;;;;1885796;75;21059;-73
2022/07/07 01:12:41;;;;;;;2.20;0.70;;;20.90;99.90;;;;;;1851812;76;21106;-73
2022/07/07 01:15:33;;;;;;;4.35;1.05;;;20.80;99.90;;;;;;1871388;76;21160;-73
2022/07/07 01:18:24;;;;;;;2.27;0.70;;;20.80;99.90;;;;;;1870188;76;21135;-73
2022/07/07 01:21:19;;;;;;;2.55;0.70;;;20.70;99.90;;;;;;1862982;76;21123;-73
2022/07/07 01:24:10;;;;;;;3.10;0.70;;;20.80;99.90;;;;;;1871143;76;21077;-73
2022/07/07 01:27:09;;;;;;;1.10;0.70;;;20.70;99.90;;;;;;1870902;76;21136;-73
2022/07/07 01:30:00;;;;;;;1.47;0.62;;;20.70;99.90;;;;;;1871641;76;21050;-73
2022/07/07 01:32:51;;;;;;;0.93;0.60;;;20.70;99.90;;;;;;1867073;76;21094;-73
2022/07/07 01:35:42;;;;;;;3.85;0.70;;;20.60;99.90;;;;;;1862460;76;21111;-73
2022/07/07 01:38:35;;;;;;;2.52;0.72;;;20.60;99.90;;;;;;1860616;76;21062;-73
2022/07/07 01:41:26;;;;;;;2.08;0.62;;;20.60;99.90;;;;;;1860025;76;21098;-73
2022/07/07 01:44:17;;;;;;;1.85;0.68;;;20.50;99.90;;;;;;1881383;76;21592;-73
2022/07/07 01:47:10;;;;;;;3.00;0.80;;;20.50;99.90;;;;;;1863138;76;21058;-73
2022/07/07 01:50:01;;;;;;;1.37;0.62;;;20.50;99.90;;;;;;1860386;76;21682;-73
2022/07/07 01:52:53;;;;;;;1.72;0.70;;;20.50;99.90;;;;;;1860423;76;21098;-73
2022/07/07 01:55:44;;;;;;;1.55;0.70;;;20.50;99.90;;;;;;1861553;76;21204;-74
2022/07/07 01:58:36;;;;;;;1.22;0.60;;;20.40;99.90;;;;;;1865264;76;21089;-73
2022/07/07 02:01:28;;;;;;;1.50;0.70;;;20.40;99.90;;;;;;1860103;76;21096;-73
2022/07/07 02:04:19;;;;;;;1.77;0.60;;;20.20;99.90;;;;;;1860042;76;21062;-73
2022/07/07 02:07:10;;;;;;;2.45;0.80;;;20.10;99.90;;;;;;1860504;76;21132;-73
2022/07/07 02:10:04;;;;;;;3.05;0.82;;;20.10;99.90;;;;;;1865957;76;21214;-73
2022/07/07 02:12:55;;;;;;;2.45;0.78;;;20.00;99.90;;;;;;1869617;75;21157;-74
2022/07/07 02:15:47;;;;;;;1.80;0.68;;;20.10;99.90;;;;;;1894113;75;21103;-73
2022/07/07 02:18:39;;;;;;;4.30;1.07;;;20.10;99.90;;;;;;1894082;75;21095;-73
2022/07/07 02:21:31;;;;;;;1.22;0.78;;;19.90;99.90;;;;;;1872570;77;21067;-73
2022/07/07 02:24:22;;;;;;;3.67;0.90;;;19.90;99.90;;;;;;1884800;75;21095;-73
2022/07/07 02:27:13;;;;;;;1.50;0.70;;;19.80;99.90;;;;;;1887356;75;21097;-73
2022/07/07 02:30:07;;;;;;;2.35;0.68;;;19.80;99.90;;;;;;1906066;75;21054;-72
2022/07/07 02:32:58;;;;;;;1.17;0.60;;;19.60;99.90;;;;;;1891446;75;21047;-72
2022/07/07 02:35:51;;;;;;;1.77;0.70;;;19.60;99.90;;;;;;1886369;75;21125;-72
2022/07/07 02:38:42;;;;;;;4.37;0.70;;;19.50;99.90;;;;;;1882712;75;21695;-72
2022/07/07 02:41:33;;;;;;;1.67;0.70;;;19.40;99.90;;;;;;1882955;75;21154;-73
2022/07/07 02:44:24;;;;;;;3.27;0.95;;;19.30;99.90;;;;;;1884496;75;21063;-72
2022/07/07 02:47:16;;;;;;;4.58;1.07;;;19.20;99.90;;;;;;1872321;77;21111;-74
2022/07/07 02:50:09;;;;;;;1.70;0.75;;;19.20;99.90;;;;;;1894007;75;21102;-72
2022/07/07 02:53:00;;;;;;;1.02;0.80;;;19.20;99.90;;;;;;1894029;75;21613;-73
2022/07/07 02:55:51;;;;;;;2.35;0.80;;;19.30;99.90;;;;;;1884165;76;21514;-73
2022/07/07 02:58:42;;;;;;;2.33;0.60;;;19.30;99.90;;;;;;1899767;75;21055;-72
2022/07/07 03:01:34;;;;;;;1.80;0.62;;;19.20;99.90;;;;;;1906747;75;21102;-72
2022/07/07 03:04:25;;;;;;;1.45;0.80;;;19.10;99.90;;;;;;1906132;75;21062;-73
2022/07/07 03:07:19;;;;;;;2.17;0.65;;;19.00;99.90;;;;;;1906083;75;21133;-72
2022/07/07 03:10:10;;;;;;;1.55;0.60;;;18.90;99.90;;;;;;1901566;75;21128;-73
2022/07/07 03:13:02;;;;;;;1.60;0.75;;;18.90;99.90;;;;;;1896761;75;21074;-72
2022/07/07 03:15:53;;;;;;;1.82;0.90;;;18.80;99.90;;;;;;1887528;75;21214;-72
2022/07/07 03:18:45;;;;;;;2.20;0.72;;;18.90;99.90;;;;;;1906347;75;21169;-72
2022/07/07 03:21:36;;;;;;;2.10;0.60;;;18.70;99.90;;;;;;1902808;75;21063;-73
2022/07/07 03:24:29;;;;;;;1.57;0.80;;;18.70;99.90;;;;;;1897943;75;21048;-72
2022/07/07 03:27:20;;;;;;;4.95;0.90;;;18.60;99.90;;;;;;1908137;75;21071;-73
2022/07/07 03:30:13;;;;;;;1.70;0.60;;;18.70;99.90;;;;;;1884170;75;21137;-72
2022/07/07 03:33:04;;;;;;;4.22;0.72;;;18.70;99.90;;;;;;1884113;76;21131;-73
2022/07/07 03:35:55;;;;;;;3.77;0.90;;;18.70;99.90;;;;;;1899643;75;21510;-72
2022/07/07 03:38:46;;;;;;;3.77;0.85;;;18.70;99.90;;;;;;1916710;75;21048;-73
2022/07/07 03:41:37;;;;;;;4.75;1.00;;;18.60;99.90;;;;;;1895226;75;21048;-72
2022/07/07 03:44:29;;;;;;;2.98;1.00;;;18.60;99.90;;;;;;1895056;75;21059;-73
2022/07/07 03:47:20;;;;;;;3.60;0.78;;;18.60;99.90;;;;;;1899371;75;21146;-72
2022/07/07 03:50:12;;;;;;;3.87;0.98;;;18.40;99.90;;;;;;1896717;75;21103;-73
2022/07/07 03:53:04;;;;;;;3.37;0.80;;;18.40;99.90;;;;;;1887386;75;21107;-73
2022/07/07 03:55:55;;;;;;;2.85;0.80;;;18.40;99.90;;;;;;1906035;75;21669;-72
2022/07/07 03:58:47;;;;;;;5.70;1.22;;;18.30;99.90;;;;;;1903024;75;21054;-73
2022/07/07 04:01:44;;;;;;;3.25;0.90;;;18.40;99.90;;;;;;1897595;75;21052;-72
2022/07/07 04:04:31;;;;;;;2.35;0.80;;;18.50;99.90;;;;;;1908994;75;21691;-73
2022/07/07 04:07:23;;;;;;;1.70;0.62;;;18.40;99.90;;;;;;1906346;75;21130;-73
2022/07/07 04:10:15;;;;;;;2.50;0.70;;;18.30;99.90;;;;;;1903793;75;21117;-72
2022/07/07 04:13:07;;;;;;;2.27;0.70;;;18.40;99.90;;;;;;1904274;75;21121;-72
2022/07/07 04:15:58;;;;;;;4.80;0.80;;;18.30;99.90;;;;;;1915905;74;21146;-73
2022/07/07 04:18:50;;;;;;;2.10;0.72;;;18.10;99.90;;;;;;1915868;74;21637;-73
2022/07/07 04:21:41;;;;;;;2.85;0.53;;;18.10;99.90;;;;;;1914252;74;21050;-73
2022/07/07 04:24:33;;;;;;;4.10;0.85;;;18.10;99.90;;;;;;1893614;76;21054;-73
2022/07/07 04:27:24;;;;;;;2.37;0.80;;;18.10;99.90;;;;;;1916178;74;21093;-73
2022/07/07 04:30:16;;;;;;;3.08;0.93;;;18.00;99.90;;;;;;1916036;74;21156;-73
2022/07/07 04:33:07;;;;;;;3.47;0.80;;;18.00;99.90;;;;;;1915365;74;21059;-74
2022/07/07 04:35:58;;;;;;;2.30;1.05;;;18.00;99.90;;;;;;1909860;74;21149;-73
2022/07/07 04:38:49;;;;;;;2.27;0.60;;;18.10;99.90;;;;;;1904174;74;21483;-73
2022/07/07 04:41:41;;;;;;;4.20;0.80;;;18.10;99.90;;;;;;1904500;74;21199;-73
2022/07/07 04:44:33;;;;;;;4.50;1.00;;;18.10;99.90;;;;;;1905160;74;21102;-73
2022/07/07 04:47:24;;;;;;;2.47;0.90;;;18.10;99.90;;;;;;1909913;74;21143;-73
2022/07/07 04:50:16;;;;;;;2.15;0.90;;;18.00;99.90;;;;;;1915988;74;21454;-73
2022/07/07 04:53:07;;;;;;;2.52;0.80;;;17.90;99.90;;;;;;1915484;74;21059;-72
2022/07/07 04:55:58;;;;;;;2.47;0.80;;;17.80;99.90;;;;;;1915538;74;21072;-73
2022/07/07 04:58:49;;;;;;;3.20;0.90;;;18.00;99.90;;;;;;1911166;74;21132;-73
2022/07/07 05:01:41;;;;;;;5.12;0.90;;;17.90;99.90;;;;;;1905927;74;21051;-74
2022/07/07 05:04:32;;;;;;;2.25;0.85;;;17.90;99.90;;;;;;1926584;74;21522;-73
2022/07/07 05:07:23;;;;;;;4.08;0.88;;;17.80;99.90;;;;;;1904712;74;21109;-73
2022/07/07 05:10:14;;;;;;;2.83;1.00;;;17.90;99.90;;;;;;1908416;74;21427;-74
2022/07/07 05:13:06;;;;;;;4.08;1.00;;;18.00;99.90;;;;;;1906528;74;21120;-74
2022/07/07 05:15:57;;;;;;;2.92;0.98;;;18.00;99.90;;;;;;1904712;74;21547;-73
2022/07/07 05:18:49;;;;;;;3.00;0.80;;;18.00;99.90;;;;;;1904379;74;21638;-74
2022/07/07 05:21:40;;;;;;;4.20;0.82;;;17.90;99.90;;;;;;1907413;74;21498;-73
2022/07/07 05:24:31;;;;;;;3.27;0.60;;;17.90;99.90;;;;;;1907469;74;21159;-72
2022/07/07 05:27:23;;;;;;;5.70;1.05;;;17.90;99.90;;;;;;1904238;74;21047;-72
2022/07/07 05:30:16;;;;;;;1.10;0.50;;;17.80;99.90;;;;;;1900748;74;21121;-72
2022/07/07 05:33:07;;;;;;;3.42;1.60;;;17.80;99.90;;;;;;1893672;76;21151;-73
2022/07/07 05:35:59;;;;;;;3.62;1.15;;;17.90;99.90;;;;;;1909287;74;21162;-73
2022/07/07 05:38:52;;;;;;;3.10;0.80;;;18.10;99.90;;;;;;1915575;74;21183;-73
2022/07/07 05:41:43;;;;;;;3.40;0.80;;;18.00;99.90;;;;;;1915739;74;21502;-72
2022/07/07 05:44:34;;;;;;;2.67;0.95;;;18.00;99.90;;;;;;1915793;74;21164;-73
2022/07/07 05:47:26;;;;;;;3.80;1.12;;;18.00;99.90;;;;;;1910821;74;21499;-74
2022/07/07 05:50:18;;;;;;;7.37;1.20;;;18.00;99.90;;;;;;1914562;74;21073;-73
2022/07/07 05:53:10;;;;;;;7.25;1.00;;;18.00;99.90;;;;;;1900308;74;21124;-72
2022/07/07 05:56:01;;;;;;;6.55;1.07;;;18.00;99.90;;;;;;1904458;74;21141;-72
2022/07/07 05:58:53;;;;;;;3.87;0.80;;;17.90;99.90;;;;;;1907818;74;21128;-72
2022/07/07 06:01:44;;;;;;;3.40;0.93;;;17.90;99.90;;;;;;1907326;74;21062;-73
2022/07/07 06:04:36;;;;;;;4.40;1.00;;;17.80;99.90;;;;;;1904435;74;21168;-73
2022/07/07 06:07:27;;;;;;;4.15;1.20;;;17.80;99.90;;;;;;1901404;74;21066;-73
2022/07/07 06:10:19;;;;;;;6.35;1.05;;;17.70;99.90;;;;;;1913259;74;21116;-73
2022/07/07 06:13:10;;;;;;;4.40;1.27;;;17.80;99.90;;;;;;1907880;74;21098;-73
2022/07/07 06:16:02;;;;;;;5.83;1.05;;;17.90;99.90;;;;;;1891505;74;21122;-73
2022/07/07 06:18:54;;;;;;;2.98;1.10;;;17.90;99.90;;;;;;1878858;75;21067;-75
2022/07/07 06:21:46;;;;;;;7.25;1.40;;;18.00;99.90;;;;;;1884154;76;21118;-73
2022/07/07 06:24:37;;;;;;;2.27;0.80;;;18.00;99.90;;;;;;1883947;76;21055;-73
2022/07/07 06:27:29;;;;;;;3.92;1.00;;;18.00;99.90;;;;;;1905856;75;21055;-74
2022/07/07 06:30:20;;;;;;;2.85;0.78;;;18.00;99.90;;;;;;1905925;75;21176;-78
2022/07/07 06:33:12;;;;;;;2.90;0.72;;;18.10;99.90;;;;;;1884356;75;21051;-72
2022/07/07 06:36:03;;;;;;;2.10;0.88;;;18.10;99.90;;;;;;1899598;75;21106;-73
2022/07/07 06:38:55;;;;;;;2.37;0.70;;;18.20;99.90;;;;;;1895223;75;21180;-73
2022/07/07 06:41:47;;;;;;;1.92;0.98;;;18.30;99.90;;;;;;1893928;75;21084;-72
2022/07/07 06:44:38;;;;;;;2.95;1.15;;;18.40;99.90;;;;;;1893210;75;21146;-73
2022/07/07 06:47:30;;;;;;;8.08;1.15;;;18.50;99.90;;;;;;1901899;75;21160;-73
2022/07/07 06:50:21;;;;;;;6.37;0.78;;;18.50;99.90;;;;;;1896577;75;21533;-73
2022/07/07 06:53:13;;;;;;;3.47;1.00;;;18.50;99.90;;;;;;1894394;75;21048;-72
2022/07/07 06:56:05;;;;;;;2.33;0.80;;;18.60;99.90;;;;;;1894769;75;21063;-72
2022/07/07 06:58:56;;;;;;;1.62;0.90;;;18.70;99.90;;;;;;1898125;75;21110;-72
2022/07/07 07:01:47;;;;;;;5.50;0.93;;;18.90;99.90;;;;;;1884059;76;21169;-74
2022/07/07 07:04:38;;;;;;;1.30;0.53;;;19.00;99.90;;;;;;1892686;75;21055;-73
2022/07/07 07:07:31;;;;;;;3.08;1.00;;;19.10;99.90;;;;;;1891115;75;21096;-73
2022/07/07 07:10:23;;;;;;;1.40;0.60;;;19.20;99.90;;;;;;1884071;76;21070;-73
2022/07/07 07:13:14;;;;;;;3.15;0.80;;;19.30;99.90;;;;;;1899816;75;21486;-73
2022/07/07 07:16:07;;;;;;;5.33;1.42;;;19.30;99.90;;;;;;1886583;75;21214;-73
2022/07/07 07:18:59;;;;;;;1.90;1.00;;;19.50;99.90;;;;;;1921699;74;21062;-74
2022/07/07 07:21:50;;;;;;;3.12;0.95;;;19.50;99.90;;;;;;1921843;74;21083;-72
2022/07/07 07:24:41;;;;;;;3.02;0.98;;;19.70;99.90;;;;;;1917301;74;21050;-74
2022/07/07 07:27:34;;;;;;;2.85;0.85;;;19.60;99.90;;;;;;1899910;75;21087;-73
2022/07/07 07:30:25;;;;;;;1.95;0.70;;;19.70;99.90;;;;;;1921559;74;21113;-73
2022/07/07 07:33:17;;;;;;;2.25;0.70;;;19.80;99.90;;;;;;1921919;74;21109;-73
2022/07/07 07:36:10;;;;;;;4.33;1.00;;;19.90;99.90;;;;;;1918577;74;21054;-73
2022/07/07 07:39:01;;;;;;;2.33;0.70;;;19.80;99.90;;;;;;1912881;74;21131;-73
2022/07/07 07:41:54;;;;;;;2.17;0.85;;;20.00;99.90;;;;;;1910522;74;21163;-73
2022/07/07 07:47:56;;;;;;;3.52;0.90;;;20.10;99.90;;;;;;1910845;74;21186;-73
2022/07/07 07:50:48;;;;;;;1.42;0.95;;;20.10;99.90;;;;;;1933043;74;21050;-73
2022/07/07 07:53:39;;;;;;;2.17;0.80;;;20.20;99.90;;;;;;1914149;74;21171;-73
2022/07/07 07:56:31;;;;;;;2.65;0.80;;;20.30;99.90;;;;;;1910796;74;21084;-73
2022/07/07 07:59:22;;;;;;;1.40;1.00;;;20.30;99.90;;;;;;1907710;74;21518;-73
2022/07/07 08:02:14;;;;;;;3.08;1.10;;;20.50;99.90;;;;;;1899864;75;21524;-73
2022/07/07 08:05:06;;;;;;;1.22;0.90;;;20.60;99.90;;;;;;1840247;77;21094;-73
2022/07/07 08:07:58;;;;;;;2.20;1.00;;;20.80;99.90;;;;;;1923795;74;21076;-73
2022/07/07 08:10:50;;;;;;;3.00;1.10;;;20.80;99.90;;;;;;1922031;74;21047;-73
2022/07/07 08:13:41;;;;;;;3.22;0.80;;;20.90;99.90;;;;;;1921459;74;21054;-73
2022/07/07 08:16:35;;;;;;;3.08;1.20;;;20.90;99.90;;;;;;1916840;74;21124;-73
2022/07/07 08:19:27;;;;;;;1.75;0.90;;;20.90;99.90;;;;;;1869812;76;21163;-73
2022/07/07 08:22:18;;;;;;;2.92;0.90;;;20.90;99.90;;;;;;1799447;79;21118;-73
2022/07/07 08:25:10;;;;;;;3.62;0.90;;;20.90;99.90;;;;;;1860157;76;21178;-74
2022/07/07 08:28:02;;;;;;;4.53;1.30;;;20.80;99.90;;;;;;1864530;76;21195;-73
2022/07/07 08:30:54;;;;;;;4.92;1.17;;;20.80;99.90;;;;;;1862588;76;21160;-73
2022/07/07 08:33:48;;;;;;;5.08;0.93;;;20.80;99.90;;;;;;1873219;76;21082;-76
2022/07/07 08:36:40;;;;;;;3.33;1.10;;;20.80;99.90;;;;;;1871014;76;21164;-73
2022/07/07 08:39:32;;;;;;;3.08;0.90;;;20.90;99.90;;;;;;1869437;76;21058;-73
2022/07/07 08:42:23;;;;;;;2.70;0.90;;;20.90;99.90;;;;;;1866329;76;21090;-73
2022/07/07 08:45:15;;;;;;;3.87;1.05;;;21.00;99.90;;;;;;1871282;76;21062;-73
2022/07/07 08:48:07;;;;;;;3.08;1.00;;;21.10;99.90;;;;;;1871438;76;21603;-73
2022/07/07 08:50:59;;;;;;;1.57;1.00;;;21.20;99.90;;;;;;1870293;76;21117;-74
2022/07/07 08:53:52;;;;;;;2.08;1.00;;;21.30;99.90;;;;;;1865867;76;21558;-73
2022/07/07 08:56:44;;;;;;;1.77;0.90;;;21.40;99.90;;;;;;1860696;76;21156;-73
2022/07/07 08:59:35;;;;;;;3.60;1.27;;;21.50;99.90;;;;;;1860449;76;21490;-73
2022/07/07 09:02:28;;;;;;;3.42;1.20;;;21.60;99.90;;;;;;1860087;76;21073;-73
2022/07/07 09:05:19;;;;;;;7.30;1.00;;;21.50;99.90;;;;;;1864332;76;21124;-73
2022/07/07 09:08:21;;;;;;;3.70;0.80;;;21.60;99.90;;;;;;1862198;76;21116;-73
2022/07/07 09:11:12;;;;;;;5.20;0.88;;;21.70;99.90;;;;;;1860038;76;21093;-73
2022/07/07 09:14:13;;;;;;;3.75;0.88;;;21.80;99.90;;;;;;1860561;76;21115;-73
2022/07/07 09:17:04;;;;;;;6.08;1.15;;;21.90;99.90;;;;;;1858839;76;21544;-73
2022/07/07 09:20:05;;;;;;;2.67;1.00;;;21.90;99.90;;;;;;1909077;74;21131;-73
2022/07/07 09:22:58;;;;;;;2.20;1.00;;;22.10;99.90;;;;;;1908599;74;21125;-73
2022/07/07 09:25:51;;;;;;;2.20;1.10;;;22.10;99.90;;;;;;1904314;74;21127;-73
2022/07/07 09:28:44;;;;;;;2.75;0.90;;;22.20;99.90;;;;;;1898861;74;21203;-73
2022/07/07 09:31:57;;;;;;;2.75;0.90;;;22.20;99.90;;;;;;1891713;74;21193;-72
2022/07/07 09:34:49;;;;;;;5.08;1.17;;;22.40;99.90;;;;;;1904511;74;21090;-73
2022/07/07 09:41:03;;;;;;;5.35;1.52;;;22.50;99.90;;;;;;1907761;74;21075;-73
2022/07/07 09:43:55;;;;;;;5.22;1.25;;;22.60;99.90;;;;;;1907941;74;21043;-73
2022/07/07 09:46:47;;;;;;;2.10;0.90;;;22.60;99.90;;;;;;1917196;74;21106;-73
2022/07/07 09:49:43;;;;;;;3.42;1.12;;;22.70;99.90;;;;;;1915929;74;21176;-74
2022/07/07 09:52:36;;;;;;;2.95;1.32;;;22.80;99.90;;;;;;1893538;76;21058;-73
2022/07/07 09:55:28;;;;;;;2.33;1.12;;;23.00;99.90;;;;;;1911091;74;21208;-73
2022/07/07 09:58:19;;;;;;;2.15;1.30;;;23.00;99.90;;;;;;1905363;74;21130;-73
2022/07/07 10:01:11;;;;;;;3.65;0.90;;;23.20;99.90;;;;;;1904528;74;21095;-73
2022/07/07 10:04:04;;;;;;;2.27;0.98;;;23.40;99.90;;;;;;1925190;74;21168;-74
2022/07/07 10:06:59;;;;;;;3.80;1.47;;;23.50;99.90;;;;;;1912354;74;21050;-73
2022/07/07 10:09:56;;;;;;;3.33;1.20;;;23.70;99.90;;;;;;1893637;74;21056;-73
2022/07/07 10:12:49;;;;;;;2.10;0.90;;;23.70;99.90;;;;;;1903684;74;21051;-73
2022/07/07 10:15:40;;;;;;;2.42;1.10;;;23.80;99.90;;;;;;1921417;74;21060;-73
2022/07/07 10:18:31;;;;;;;1.98;1.00;;;23.90;99.90;;;;;;1893653;74;21128;-74
2022/07/07 10:21:22;;;;;;;2.60;1.35;;;23.80;99.90;;;;;;1865183;76;21159;-73
2022/07/07 10:24:15;;;;;;;1.65;0.85;;;23.90;99.90;;;;;;1861201;76;21054;-74
2022/07/07 10:27:08;;;;;;;2.10;1.22;;;23.90;99.90;;;;;;1860426;76;21116;-73
2022/07/07 10:30:01;;;;;;;1.77;0.85;;;23.90;99.90;;;;;;1858442;76;21116;-73
2022/07/07 10:32:54;;;;;;;3.42;1.07;;;24.00;99.90;;;;;;1867020;76;21161;-74
2022/07/07 10:35:48;;;;;;;2.52;1.10;;;24.00;99.90;;;;;;1862570;76;21090;-74
2022/07/07 10:38:42;;;;;;;1.65;1.00;;;24.00;99.90;;;;;;1860267;76;21169;-73
2022/07/07 10:41:34;;;;;;;3.72;0.90;;;24.10;99.90;;;;;;1860282;76;21065;-75
2022/07/07 10:44:25;;;;;;;2.55;1.10;;;24.20;99.90;;;;;;1861859;76;21123;-73
2022/07/07 10:47:35;;;;;;;6.62;1.30;;;24.30;99.90;;;;;;1849948;77;21170;-73
2022/07/07 10:50:33;;;;;;;1.40;1.02;;;24.30;99.90;;;;;;1863358;76;21109;-73
2022/07/07 10:53:32;;;;;;;3.90;1.27;;;24.30;99.90;;;;;;1871281;76;21061;-73
2022/07/07 10:56:24;;;;;;;3.25;0.98;;;24.30;99.90;;;;;;1856796;76;21102;-73
2022/07/07 10:59:15;;;;;;;2.37;0.90;;;24.40;99.90;;;;;;1860419;76;21117;-73
2022/07/07 11:02:13;;;;;;;2.05;0.82;;;24.40;99.90;;;;;;1863735;76;21131;-74
2022/07/07 11:05:30;;;;;;;3.17;1.22;;;24.60;99.90;;;;;;1850043;77;21505;-73
2022/07/07 11:08:23;;;;;;;4.65;1.20;;;24.50;99.90;;;;;;1864481;76;21066;-73
2022/07/07 11:11:16;;;;;;;3.10;1.07;;;24.60;99.90;;;;;;1871384;76;21054;-73
2022/07/07 11:14:11;;;;;;;3.62;1.00;;;24.60;99.90;;;;;;1870953;76;21143;-74
2022/07/07 11:17:04;;;;;;;4.17;1.20;;;24.60;99.90;;;;;;1871068;76;21109;-74
2022/07/07 11:20:00;;;;;;;2.08;1.10;;;24.70;99.90;;;;;;1871212;74;21233;-74
2022/07/07 11:22:54;;;;;;;3.75;0.80;;;24.90;99.90;;;;;;1872117;75;21053;-74
2022/07/07 11:25:51;;;;;;;3.98;1.20;;;24.90;99.90;;;;;;1893245;75;21110;-73
2022/07/07 11:28:42;;;;;;;3.05;0.90;;;25.00;99.90;;;;;;1894909;75;21216;-74
2022/07/07 11:31:33;;;;;;;2.87;0.98;;;25.00;99.90;;;;;;1895228;75;21117;-74
2022/07/07 11:34:28;;;;;;;3.12;1.00;;;25.10;99.90;;;;;;1899744;75;21040;-73
2022/07/07 11:37:26;;;;;;;5.40;1.40;;;25.30;99.90;;;;;;1907997;74;21114;-73
2022/07/07 11:40:26;;;;;;;4.22;1.50;;;25.30;99.90;;;;;;1893943;75;21048;-73
2022/07/07 11:43:23;;;;;;;2.20;1.25;;;25.20;99.90;;;;;;1889730;75;21625;-73
2022/07/07 11:46:15;;;;;;;5.75;1.22;;;25.30;99.90;;;;;;1895044;75;21082;-74
2022/07/07 11:49:08;;;;;;;2.50;1.15;;;25.50;99.90;;;;;;1917114;75;21056;-75
2022/07/07 11:52:01;;;;;;;1.65;0.98;;;25.40;99.90;;;;;;1897574;75;21134;-75
2022/07/07 11:54:53;;;;;;;8.63;1.00;;;25.60;99.90;;;;;;1894956;75;21060;-74
2022/07/07 11:57:47;;;;;;;3.02;1.05;;;25.60;99.90;;;;;;1891688;75;21058;-73
2022/07/07 12:00:41;;;;;;;7.10;1.02;;;25.70;99.90;;;;;;1872212;77;21059;-72
2022/07/07 12:03:37;;;;;;;1.25;0.93;;;25.70;99.90;;;;;;1887769;75;21056;-74
2022/07/07 12:06:29;;;;;;;3.37;0.93;;;25.90;99.90;;;;;;1899710;75;21067;-73
2022/07/07 12:09:22;;;;;;;2.55;0.80;;;25.70;99.90;;;;;;1894091;75;21051;-73
2022/07/07 12:12:20;;;;;;;3.75;1.00;;;25.90;99.90;;;;;;1893965;75;21055;-73
2022/07/07 12:15:13;;;;;;;;;;;25.80;99.90;;;;;;1894586;75;21052;-73
2022/07/07 12:18:07;;;;;;;3.45;1.00;;;25.90;99.90;;;;;;1890223;75;20146;-73
2022/07/07 12:21:02;;;;;;;3.37;0.80;;;26.00;99.90;;;;;;1893770;75;21145;-73
2022/07/07 12:23:55;;;;;;;6.05;1.10;;;26.30;99.90;;;;;;1899967;75;21052;-73
2022/07/07 12:26:50;;;;;;;7.55;1.15;;;26.40;99.90;;;;;;1882897;75;21124;-73
2022/07/07 12:30:00;;;;;;;5.17;0.80;;;26.40;99.90;;;;;;1885628;75;21049;-73
2022/07/07 12:32:53;;;;;;;3.08;0.90;;;26.40;99.90;;;;;;1902057;75;21113;-73
2022/07/07 12:35:47;;;;;;;2.08;0.90;;;26.40;99.90;;;;;;1897170;75;21059;-73
2022/07/07 12:38:40;;;;;;;2.90;1.00;;;26.60;99.90;;;;;;1874847;75;21095;-73
2022/07/07 12:41:35;;;;;;;4.00;0.95;;;26.50;99.90;;;;;;1894177;75;21051;-74
2022/07/07 12:44:31;;;;;;;4.00;0.95;;;26.60;99.90;;;;;;1892777;75;21638;-73
2022/07/07 12:47:30;;;;;;;4.70;1.20;;;26.70;99.90;;;;;;1872173;77;21174;-74
2022/07/07 12:50:24;;;;;;;3.22;1.05;;;26.60;99.90;;;;;;1879462;76;21140;-73
2022/07/07 12:53:17;;;;;;;5.45;0.98;;;26.60;99.90;;;;;;1905087;75;21132;-73
2022/07/07 12:56:13;;;;;;;7.78;1.00;;;26.60;99.90;;;;;;1905957;75;21054;-74
2022/07/07 12:59:18;;;;;;;5.17;0.95;;;26.60;99.90;;;;;;1905191;75;21548;-74
2022/07/07 13:02:10;;;;;;;3.12;0.70;;;26.70;99.90;;;;;;1885840;75;21059;-73
2022/07/07 13:05:02;;;;;;;2.20;1.00;;;26.70;99.90;;;;;;1886640;75;21058;-74
2022/07/07 13:07:54;;;;;;;2.40;0.78;;;26.80;99.90;;;;;;1882922;75;21092;-74
2022/07/07 13:10:45;;;;;;;1.55;0.80;;;26.80;99.90;;;;;;1882802;75;21151;-73
2022/07/07 13:13:37;;;;;;;4.62;0.70;;;26.80;99.90;;;;;;1883668;75;21039;-73
2022/07/07 13:16:31;;;;;;;1.17;0.70;;;26.90;99.90;;;;;;1900670;75;21200;-73
2022/07/07 13:19:23;;;;;;;2.35;1.05;;;26.90;99.90;;;;;;1895562;75;21056;-73
2022/07/07 13:22:15;;;;;;;4.20;1.02;;;26.90;99.90;;;;;;1900051;74;21070;-73
2022/07/07 13:25:11;;;;;;;2.00;0.90;;;26.90;99.90;;;;;;1910553;74;21143;-74
2022/07/07 13:28:03;;;;;;;4.40;0.90;;;27.00;99.90;;;;;;1914458;74;21109;-73
2022/07/07 13:30:55;;;;;;;4.12;0.90;;;27.20;99.90;;;;;;1899948;75;21062;-73
2022/07/07 13:33:47;;;;;;;4.20;1.00;;;27.10;99.90;;;;;;1921954;74;21095;-73
2022/07/07 13:36:39;;;;;;;2.90;0.78;;;27.10;99.90;;;;;;1922056;74;21236;-74
2022/07/07 13:39:31;;;;;;;4.25;1.10;;;27.10;99.90;;;;;;1920818;74;21609;-74
2022/07/07 13:42:24;;;;;;;5.22;0.80;;;27.20;99.90;;;;;;1917477;74;21105;-73
2022/07/07 13:45:16;;;;;;;2.58;0.82;;;27.30;99.90;;;;;;1922045;74;21062;-74
2022/07/07 13:48:08;;;;;;;2.50;0.90;;;27.40;99.90;;;;;;1922149;74;21074;-74
2022/07/07 13:50:59;;;;;;;2.85;0.70;;;27.60;99.90;;;;;;1921778;74;21148;-74
2022/07/07 13:53:52;;;;;;;3.20;0.70;;;27.70;99.90;;;;;;1916269;74;21218;-73
2022/07/07 13:56:45;;;;;;;3.22;0.80;;;27.90;99.90;;;;;;1911843;74;21113;-74
2022/07/07 13:59:36;;;;;;;2.87;0.90;;;28.00;99.90;;;;;;1904006;74;21269;-74
2022/07/07 14:02:28;;;;;;;2.58;0.60;;;28.20;99.90;;;;;;1922125;74;21106;-75
2022/07/07 14:05:23;;;;;;;3.45;0.70;;;28.40;99.80;;;;;;1918931;74;21648;-74
2022/07/07 14:08:15;;;;;;;4.47;0.85;;;28.50;99.90;;;;;;1914104;74;21156;-75
2022/07/07 14:11:11;;;;;;;1.60;0.70;;;28.60;99.40;;;;;;1910737;74;21446;-74
2022/07/07 14:14:02;;;;;;;4.90;0.80;;;28.60;99.10;;;;;;1910591;74;21092;-74
2022/07/07 14:16:55;;;;;;;3.25;0.85;;;28.80;99.00;;;;;;1911355;74;21065;-74
2022/07/07 14:19:47;;;;;;;6.20;1.10;;;28.90;98.70;;;;;;1916443;74;21083;-74
2022/07/07 14:22:38;;;;;;;2.67;0.85;;;29.00;98.80;;;;;;1919629;74;21119;-75
2022/07/07 14:25:30;;;;;;;5.55;0.70;;;29.00;98.40;;;;;;1906294;75;21091;-75
2022/07/07 14:28:22;;;;;;;3.70;0.70;;;29.00;98.30;;;;;;1906212;75;21103;-74
2022/07/07 14:31:13;;;;;;;3.02;0.80;;;29.20;97.20;;;;;;1884035;76;21109;-74
2022/07/07 14:34:04;;;;;;;2.62;0.75;;;28.70;97.50;;;;;;1896795;75;21090;-74
2022/07/07 14:36:56;;;;;;;6.42;0.60;;;29.00;97.70;;;;;;1909736;75;21121;-75
2022/07/07 14:39:47;;;;;;;3.70;0.68;;;29.00;97.10;;;;;;1906146;75;21146;-74
2022/07/07 14:42:39;;;;;;;2.67;0.70;;;29.10;97.10;;;;;;1902799;75;21059;-74
2022/07/07 14:45:31;;;;;;;3.02;0.90;;;29.20;97.10;;;;;;1906859;74;21125;-73
2022/07/07 14:48:22;;;;;;;6.03;0.88;;;29.30;96.90;;;;;;1905959;75;21184;-74
2022/07/07 14:51:13;;;;;;;3.08;0.82;;;29.20;96.70;;;;;;1905880;75;21043;-74
2022/07/07 14:54:05;;;;;;;2.35;0.93;;;29.20;96.70;;;;;;1904501;75;21570;-74
2022/07/07 14:56:56;;;;;;;1.70;0.60;;;29.30;96.20;;;;;;1916969;75;21062;-74
2022/07/07 14:59:49;;;;;;;3.27;0.80;;;29.40;95.80;;;;;;1894640;75;21050;-74
2022/07/07 15:02:40;;;;;;;1.67;0.80;;;29.70;95.70;;;;;;1894461;75;21125;-74
2022/07/07 15:05:32;;;;;;;4.42;0.88;;;29.50;95.90;;;;;;1894660;75;21373;-75